createdAt,value
2019-05-18T00:01:46.018Z,29.03
2019-05-18T00:04:16.211Z,29.37
2019-05-18T00:06:47.630Z,25.13
2019-05-18T00:09:17.858Z,21.47
2019-05-18T00:11:48.078Z,18.47
2019-05-18T00:14:18.411Z,15.60
2019-05-18T00:16:48.721Z,14.90
2019-05-18T00:19:18.938Z,13.03
2019-05-18T00:21:49.256Z,13.67
2019-05-18T00:24:19.777Z,14.47
2019-05-18T00:26:50.022Z,14.13
2019-05-18T00:29:20.363Z,14.07
2019-05-18T00:31:50.557Z,13.57
2019-05-18T00:34:20.865Z,15.27
2019-05-18T00:36:51.325Z,15.00
2019-05-18T00:39:21.591Z,13.90
2019-05-18T00:41:51.803Z,14.83
2019-05-18T00:44:22.149Z,14.43
2019-05-18T00:46:52.378Z,15.80
2019-05-18T00:49:22.574Z,15.67
2019-05-18T00:51:52.825Z,17.63
2019-05-18T00:54:23.057Z,16.73
2019-05-18T00:56:53.391Z,16.60
2019-05-18T00:59:23.828Z,15.10
2019-05-18T01:01:54.079Z,16.27
2019-05-18T01:04:24.447Z,16.67
2019-05-18T01:06:55.594Z,15.87
2019-05-18T01:09:25.860Z,16.67
2019-05-18T01:11:56.106Z,15.17
2019-05-18T01:14:26.380Z,15.20
2019-05-18T01:16:56.688Z,16.07
2019-05-18T01:19:26.920Z,15.63
2019-05-18T01:21:57.274Z,16.97
2019-05-18T01:24:27.543Z,16.37
2019-05-18T01:26:57.717Z,15.60
2019-05-18T01:29:28.027Z,16.17
2019-05-18T01:31:58.316Z,16.60
2019-05-18T01:34:28.490Z,16.77
2019-05-18T01:36:58.779Z,16.90
2019-05-18T01:39:29.040Z,17.77
2019-05-18T01:41:59.318Z,17.57
2019-05-18T01:44:29.685Z,18.03
2019-05-18T01:46:59.911Z,18.07
2019-05-18T01:49:30.137Z,16.27
2019-05-18T01:52:00.439Z,18.03
2019-05-18T01:54:30.708Z,17.67
2019-05-18T01:57:01.099Z,16.33
2019-05-18T01:59:31.495Z,17.27
2019-05-18T02:02:01.743Z,17.53
2019-05-18T02:04:32.105Z,18.60
2019-05-18T02:07:02.408Z,18.67
2019-05-18T02:09:33.492Z,20.10
2019-05-18T02:12:03.755Z,19.90
2019-05-18T02:14:34.004Z,19.37
2019-05-18T02:17:08.686Z,20.60
2019-05-18T02:19:39.002Z,19.17
2019-05-18T02:22:09.248Z,19.70
2019-05-18T02:24:39.446Z,20.07
2019-05-18T02:27:09.690Z,20.53
2019-05-18T02:29:39.928Z,19.53
2019-05-18T02:32:10.248Z,18.47
2019-05-18T02:34:40.477Z,18.40
2019-05-18T02:37:10.639Z,17.50
2019-05-18T02:39:43.824Z,16.77
2019-05-18T02:42:18.984Z,16.33
2019-05-18T02:44:49.468Z,16.30
2019-05-18T02:47:19.724Z,16.77
2019-05-18T02:49:49.885Z,15.27
2019-05-18T02:52:20.180Z,16.10
2019-05-18T02:54:50.560Z,16.73
2019-05-18T02:57:20.817Z,16.50
2019-05-18T02:59:51.021Z,15.43
2019-05-18T03:02:21.236Z,16.70
2019-05-18T03:04:51.710Z,16.77
2019-05-18T03:07:23.508Z,17.37
2019-05-18T03:09:56.138Z,16.97
2019-05-18T03:12:26.584Z,15.77
2019-05-18T03:14:58.110Z,17.10
2019-05-18T03:17:28.345Z,16.13
2019-05-18T03:19:58.536Z,16.20
2019-05-18T03:22:31.421Z,16.83
2019-05-18T03:25:01.627Z,16.67
2019-05-18T03:27:32.323Z,18.07
2019-05-18T03:30:02.546Z,17.43
2019-05-18T03:32:32.902Z,18.43
2019-05-18T03:35:05.229Z,17.00
2019-05-18T03:37:35.499Z,17.83
2019-05-18T03:40:07.538Z,19.30
2019-05-18T03:42:38.468Z,18.33
2019-05-18T03:45:09.543Z,17.57
2019-05-18T03:47:39.752Z,19.80
2019-05-18T03:50:11.358Z,20.30
2019-05-18T03:52:41.625Z,19.97
2019-05-18T03:55:12.097Z,20.00
2019-05-18T03:57:42.400Z,22.03
2019-05-18T04:00:12.849Z,20.37
2019-05-18T04:02:42.915Z,19.30
2019-05-18T04:05:13.270Z,20.50
2019-05-18T04:07:43.500Z,21.03
2019-05-18T04:10:13.856Z,22.30
2019-05-18T04:12:45.022Z,21.30
2019-05-18T04:15:19.349Z,20.77
2019-05-18T04:17:49.584Z,19.97
2019-05-18T04:20:20.084Z,19.77
2019-05-18T04:22:50.369Z,19.67
2019-05-18T04:25:24.663Z,19.37
2019-05-18T04:27:54.948Z,19.43
2019-05-18T04:30:25.096Z,19.60
2019-05-18T04:32:55.584Z,18.20
2019-05-18T04:35:26.270Z,17.03
2019-05-18T04:37:57.052Z,18.67
2019-05-18T04:40:27.274Z,18.53
2019-05-18T04:42:57.468Z,18.63
2019-05-18T04:45:30.613Z,18.53
2019-05-18T04:48:01.855Z,18.33
2019-05-18T04:50:32.086Z,18.40
2019-05-18T04:53:02.365Z,18.77
2019-05-18T04:55:32.612Z,18.20
2019-05-18T04:58:02.691Z,19.03
2019-05-18T05:00:32.924Z,19.17
2019-05-18T05:03:05.073Z,18.60
2019-05-18T05:05:35.302Z,18.77
2019-05-18T05:08:05.581Z,19.47
2019-05-18T05:10:35.843Z,19.77
2019-05-18T05:13:06.989Z,19.40
2019-05-18T05:15:37.279Z,21.13
2019-05-18T05:18:07.696Z,21.37
2019-05-18T05:20:37.927Z,21.63
2019-05-18T05:23:08.337Z,22.97
2019-05-18T05:25:38.603Z,21.57
2019-05-18T05:28:08.807Z,21.77
2019-05-18T05:30:39.077Z,22.93
2019-05-18T05:33:09.268Z,21.70
2019-05-18T05:35:39.539Z,22.50
2019-05-18T05:38:09.830Z,23.33
2019-05-18T05:40:40.018Z,23.27
2019-05-18T05:43:10.260Z,23.93
2019-05-18T05:45:40.523Z,25.63
2019-05-18T05:48:10.804Z,26.07
2019-05-18T05:50:42.758Z,25.50
2019-05-18T05:53:15.418Z,25.97
2019-05-18T05:55:45.631Z,26.33
2019-05-18T05:58:16.135Z,28.27
2019-05-18T06:00:46.470Z,25.60
2019-05-18T06:03:16.739Z,27.47
2019-05-18T06:05:46.960Z,27.67
2019-05-18T06:08:17.207Z,28.00
2019-05-18T06:10:47.400Z,28.67
2019-05-18T06:13:17.806Z,27.30
2019-05-18T06:15:49.092Z,27.73
2019-05-18T06:18:19.392Z,26.93
2019-05-18T06:20:51.810Z,26.43
2019-05-18T06:23:21.613Z,28.80
2019-05-18T06:25:51.883Z,27.37
2019-05-18T06:28:22.125Z,27.40
2019-05-18T06:30:52.450Z,28.43
2019-05-18T06:33:22.634Z,26.93
2019-05-18T06:35:52.958Z,28.93
2019-05-18T06:38:23.314Z,26.77
2019-05-18T06:40:53.493Z,29.47
2019-05-18T06:43:23.722Z,28.57
2019-05-18T06:45:54.091Z,29.77
2019-05-18T06:48:24.305Z,28.53
2019-05-18T06:51:06.276Z,28.00
2019-05-18T06:53:26.417Z,29.50
2019-05-18T06:55:57.578Z,28.23
2019-05-18T06:58:28.524Z,28.13
2019-05-18T07:00:58.840Z,25.90
2019-05-18T07:03:29.014Z,29.63
2019-05-18T07:05:59.597Z,27.53
2019-05-18T07:08:29.774Z,28.40
2019-05-18T07:10:59.999Z,26.13
2019-05-18T07:13:31.335Z,27.27
2019-05-18T07:16:01.560Z,28.57
2019-05-18T07:18:31.734Z,27.87
2019-05-18T07:21:02.013Z,24.70
2019-05-18T07:23:32.227Z,26.00
2019-05-18T07:26:02.457Z,24.53
2019-05-18T07:28:32.691Z,24.07
2019-05-18T07:31:02.840Z,29.50
2019-05-18T07:33:33.104Z,26.03
2019-05-18T07:36:03.376Z,27.17
2019-05-18T07:38:33.627Z,27.57
2019-05-18T07:41:03.945Z,25.23
2019-05-18T07:43:34.264Z,26.80
2019-05-18T07:46:04.355Z,26.37
2019-05-18T07:48:34.578Z,29.03
2019-05-18T07:51:04.867Z,26.97
2019-05-18T07:53:35.114Z,29.63
2019-05-18T07:56:05.456Z,27.53
2019-05-18T07:58:35.806Z,26.30
2019-05-18T08:01:06.015Z,29.33
2019-05-18T08:03:36.287Z,29.60
2019-05-18T08:06:06.557Z,28.87
2019-05-18T08:08:36.816Z,30.87
2019-05-18T08:11:07.006Z,30.90
2019-05-18T08:13:37.312Z,25.63
2019-05-18T08:16:07.643Z,24.03
2019-05-18T08:18:37.857Z,24.50
2019-05-18T08:21:08.191Z,27.07
2019-05-18T08:23:38.442Z,27.07
2019-05-18T08:26:08.625Z,29.50
2019-05-18T08:28:38.911Z,25.50
2019-05-18T08:31:09.123Z,27.17
2019-05-18T08:33:39.355Z,28.13
2019-05-18T08:36:09.669Z,25.23
2019-05-18T08:38:39.840Z,26.30
2019-05-18T08:41:10.079Z,24.83
2019-05-18T08:43:40.390Z,25.40
2019-05-18T08:46:10.595Z,26.43
2019-05-18T08:48:40.824Z,22.80
2019-05-18T08:51:11.250Z,22.50
2019-05-18T08:53:41.527Z,18.40
2019-05-18T08:56:11.789Z,22.47
2019-05-18T08:58:42.061Z,22.20
2019-05-18T09:01:12.288Z,19.77
2019-05-18T09:03:42.507Z,21.90
2019-05-18T09:06:12.732Z,20.40
2019-05-18T09:08:42.935Z,17.73
2019-05-18T09:11:13.235Z,16.63
2019-05-18T09:13:43.544Z,17.47
2019-05-18T09:16:14.699Z,15.97
2019-05-18T09:18:44.986Z,17.27
2019-05-18T09:21:15.295Z,18.30
2019-05-18T09:23:45.378Z,18.17
2019-05-18T09:26:15.632Z,13.33
2019-05-18T09:28:45.891Z,13.77
2019-05-18T09:31:16.139Z,13.60
2019-05-18T09:33:46.270Z,15.63
2019-05-18T09:36:16.580Z,15.27
2019-05-18T09:38:46.731Z,16.30
2019-05-18T09:41:16.915Z,16.60
2019-05-18T09:43:47.237Z,17.17
2019-05-18T09:46:17.494Z,16.73
2019-05-18T09:48:47.869Z,15.20
2019-05-18T09:51:18.142Z,15.03
2019-05-18T09:53:51.472Z,16.50
2019-05-18T09:56:42.801Z,15.37
2019-05-18T09:59:14.296Z,15.67
2019-05-18T10:02:31.781Z,15.40
2019-05-18T10:05:02.017Z,14.80
2019-05-18T10:07:32.330Z,15.10
2019-05-18T10:10:04.291Z,15.50
2019-05-18T10:12:39.014Z,14.13
2019-05-18T10:15:21.919Z,13.70
2019-05-18T10:18:17.450Z,12.63
2019-05-18T10:21:44.092Z,13.10
2019-05-18T10:24:14.360Z,13.73
2019-05-18T10:26:44.640Z,14.10
2019-05-18T10:29:14.871Z,13.43
2019-05-18T10:31:45.095Z,13.73
2019-05-18T10:34:15.396Z,13.33
2019-05-18T10:36:45.768Z,14.53
2019-05-18T10:39:15.956Z,14.77
2019-05-18T10:41:46.264Z,14.60
2019-05-18T10:44:16.547Z,13.60
2019-05-18T10:46:46.724Z,14.00
2019-05-18T10:49:16.850Z,13.83
2019-05-18T10:51:47.112Z,14.30
2019-05-18T10:54:17.279Z,13.60
2019-05-18T10:56:47.559Z,12.70
2019-05-18T10:59:17.742Z,11.90
2019-05-18T11:01:47.899Z,11.93
2019-05-18T11:04:18.227Z,13.27
2019-05-18T11:06:48.281Z,12.20
2019-05-18T11:09:18.575Z,12.40
2019-05-18T11:11:49.041Z,13.03
2019-05-18T11:14:19.299Z,12.33
2019-05-18T11:16:49.510Z,12.23
2019-05-18T11:19:20.569Z,13.67
2019-05-18T11:21:50.741Z,13.57
2019-05-18T11:24:20.959Z,12.87
2019-05-18T11:26:51.272Z,13.23
2019-05-18T11:29:23.441Z,12.90
2019-05-18T11:31:53.266Z,15.27
2019-05-18T11:34:23.580Z,13.00
2019-05-18T11:36:53.848Z,13.07
2019-05-18T11:39:24.023Z,12.97
2019-05-18T11:41:54.351Z,11.37
2019-05-18T11:44:24.672Z,12.00
2019-05-18T11:46:54.933Z,13.47
2019-05-18T11:49:25.169Z,14.70
2019-05-18T11:51:55.567Z,15.37
2019-05-18T11:54:25.816Z,14.27
2019-05-18T11:56:56.132Z,15.90
2019-05-18T11:59:26.424Z,15.87
2019-05-18T12:01:56.526Z,15.13
2019-05-18T12:04:26.864Z,16.00
2019-05-18T12:06:57.082Z,15.93
2019-05-18T12:09:27.399Z,16.13
2019-05-18T12:11:57.526Z,19.60
2019-05-18T12:14:27.796Z,18.80
2019-05-18T12:16:57.959Z,18.53
2019-05-18T12:19:28.245Z,22.00
2019-05-18T12:22:00.317Z,21.63
2019-05-18T12:24:30.627Z,21.73
2019-05-18T12:27:00.835Z,22.87
2019-05-18T12:29:31.023Z,24.07
2019-05-18T12:32:01.283Z,24.80
2019-05-18T12:34:31.563Z,23.60
2019-05-18T12:37:01.791Z,20.97
2019-05-18T12:39:31.994Z,21.20
2019-05-18T12:42:02.725Z,23.97
2019-05-18T12:44:33.159Z,24.97
2019-05-18T12:47:04.100Z,25.77
2019-05-18T12:49:36.013Z,25.97
2019-05-18T12:52:07.254Z,25.63
2019-05-18T12:54:46.232Z,24.13
2019-05-18T12:57:09.411Z,27.97
2019-05-18T12:59:39.658Z,23.03
2019-05-18T13:02:10.003Z,21.53
2019-05-18T13:04:41.977Z,24.07
2019-05-18T13:07:12.097Z,20.97
2019-05-18T13:09:42.440Z,18.77
2019-05-18T13:12:12.868Z,20.43
2019-05-18T13:14:43.109Z,20.33
2019-05-18T13:17:13.402Z,18.43
2019-05-18T13:19:43.636Z,17.97
2019-05-18T13:22:13.885Z,19.67
2019-05-18T13:24:45.836Z,17.57
2019-05-18T13:27:16.116Z,16.20
2019-05-18T13:29:46.408Z,16.10
2019-05-18T13:32:16.701Z,15.80
2019-05-18T13:34:47.001Z,15.77
2019-05-18T13:37:17.230Z,14.53
2019-05-18T13:39:47.543Z,14.10
2019-05-18T13:42:17.794Z,14.13
2019-05-18T13:44:47.979Z,11.60
2019-05-18T13:47:18.311Z,11.17
2019-05-18T13:49:48.489Z,12.13
2019-05-18T13:52:18.749Z,11.77
2019-05-18T13:55:03.011Z,10.63
2019-05-18T13:57:20.903Z,12.97
2019-05-18T13:59:51.116Z,13.83
2019-05-18T14:02:21.482Z,16.13
2019-05-18T14:04:51.704Z,16.23
2019-05-18T14:07:22.014Z,16.23
2019-05-18T14:09:52.377Z,13.07
2019-05-18T14:12:22.577Z,15.40
2019-05-18T14:14:52.864Z,14.83
2019-05-18T14:17:23.240Z,14.97
2019-05-18T14:19:53.499Z,10.77
2019-05-18T14:22:23.655Z,11.07
2019-05-18T14:24:53.952Z,11.17
2019-05-18T14:27:25.017Z,10.73
2019-05-18T14:29:55.251Z,10.10
2019-05-18T14:32:25.591Z,10.53
2019-05-18T14:34:55.828Z,8.93
2019-05-18T14:37:26.012Z,8.30
2019-05-18T14:39:56.291Z,7.27
2019-05-18T14:42:26.392Z,7.80
2019-05-18T14:44:56.625Z,8.80
2019-05-18T14:47:27.654Z,8.00
2019-05-18T14:49:57.994Z,7.17
2019-05-18T14:52:28.302Z,6.70
2019-05-18T14:54:58.524Z,6.27
2019-05-18T14:57:28.801Z,6.47
2019-05-18T15:00:02.197Z,6.77
2019-05-18T15:02:30.996Z,6.67
2019-05-18T15:05:01.333Z,6.13
2019-05-18T15:07:31.635Z,6.77
2019-05-18T15:10:01.948Z,7.10
2019-05-18T15:12:32.240Z,6.50
2019-05-18T15:15:02.418Z,6.40
2019-05-18T15:17:32.607Z,7.50
2019-05-18T15:20:02.794Z,7.23
2019-05-18T15:22:33.020Z,7.97
2019-05-18T15:25:03.244Z,7.50
2019-05-18T15:27:33.581Z,8.60
2019-05-18T15:30:04.913Z,8.40
2019-05-18T15:32:35.181Z,8.37
2019-05-18T15:35:05.635Z,9.03
2019-05-18T15:37:35.928Z,9.40
2019-05-18T15:40:06.625Z,10.17
2019-05-18T15:42:36.851Z,8.97
2019-05-18T15:45:07.603Z,9.80
2019-05-18T15:47:37.846Z,8.83
2019-05-18T15:50:08.375Z,8.67
2019-05-18T15:52:38.612Z,8.60
2019-05-18T15:55:09.182Z,7.93
2019-05-18T15:57:39.499Z,9.70
2019-05-18T16:00:10.585Z,9.47
2019-05-18T16:02:40.971Z,10.43
2019-05-18T16:05:11.451Z,9.47
2019-05-18T16:07:41.715Z,9.57
2019-05-18T16:10:12.479Z,9.47
2019-05-18T16:12:42.807Z,9.10
2019-05-18T16:15:14.374Z,9.50
2019-05-18T16:17:44.993Z,9.63
2019-05-18T16:20:15.640Z,10.23
2019-05-18T16:22:45.893Z,9.83
2019-05-18T16:25:16.659Z,9.33
2019-05-18T16:27:46.859Z,8.67
2019-05-18T16:30:18.869Z,9.37
2019-05-18T16:32:49.171Z,10.80
2019-05-18T16:35:19.439Z,11.40
2019-05-18T16:37:49.651Z,10.73
2019-05-18T16:40:20.261Z,8.90
2019-05-18T16:42:50.552Z,8.60
2019-05-18T16:45:20.833Z,9.07
2019-05-18T16:47:51.094Z,9.70
2019-05-18T16:50:21.363Z,9.30
2019-05-18T16:52:51.635Z,9.53
2019-05-18T16:55:21.889Z,9.50
2019-05-18T16:57:52.011Z,10.33
2019-05-18T17:00:22.674Z,10.33
2019-05-18T17:02:52.999Z,10.40
2019-05-18T17:05:23.255Z,10.23
2019-05-18T17:07:53.410Z,10.37
2019-05-18T17:10:23.799Z,9.67
2019-05-18T17:12:54.021Z,10.87
2019-05-18T17:15:24.414Z,9.63
2019-05-18T17:17:54.683Z,11.60
2019-05-18T17:20:24.835Z,10.97
2019-05-18T17:22:55.092Z,12.07
2019-05-18T17:25:25.364Z,11.60
2019-05-18T17:27:55.598Z,14.00
2019-05-18T17:30:25.838Z,16.17
2019-05-18T17:32:57.136Z,17.03
2019-05-18T17:35:27.202Z,16.43
2019-05-18T17:37:57.915Z,17.17
2019-05-18T17:40:28.232Z,16.40
2019-05-18T17:42:58.411Z,17.73
2019-05-18T17:45:28.612Z,17.53
2019-05-18T17:47:58.862Z,15.60
2019-05-18T17:50:29.079Z,16.47
2019-05-18T17:52:59.309Z,15.27
2019-05-18T17:55:29.667Z,13.97
2019-05-18T17:57:59.880Z,14.27
2019-05-18T18:00:30.152Z,14.53
2019-05-18T18:03:00.444Z,14.77
2019-05-18T18:05:30.655Z,14.87
2019-05-18T18:08:00.697Z,15.83
2019-05-18T18:10:31.003Z,17.27
2019-05-18T18:13:01.311Z,17.33
2019-05-18T18:15:31.553Z,14.63
2019-05-18T18:18:02.042Z,17.07
2019-05-18T18:20:32.317Z,17.27
2019-05-18T18:23:02.584Z,16.37
2019-05-18T18:25:32.776Z,16.50
2019-05-18T18:28:02.982Z,17.20
2019-05-18T18:30:33.232Z,15.07
2019-05-18T18:33:03.503Z,15.50
2019-05-18T18:35:34.756Z,14.40
2019-05-18T18:38:05.030Z,13.80
2019-05-18T18:40:35.300Z,15.00
2019-05-18T18:43:05.417Z,15.70
2019-05-18T18:45:35.695Z,13.97
2019-05-18T18:48:06.285Z,15.37
2019-05-18T18:50:36.530Z,15.17
2019-05-18T18:53:06.760Z,16.47
2019-05-18T18:55:37.197Z,15.30
2019-05-18T18:58:07.456Z,14.67
2019-05-18T19:00:38.127Z,15.37
2019-05-18T19:03:08.428Z,16.03
2019-05-18T19:05:38.700Z,14.83
2019-05-18T19:08:08.880Z,13.70
2019-05-18T19:10:39.099Z,12.90
2019-05-18T19:13:09.459Z,12.63
2019-05-18T19:15:39.753Z,11.53
2019-05-18T19:18:10.012Z,10.77
2019-05-18T19:20:40.193Z,11.70
2019-05-18T19:23:10.397Z,11.30
2019-05-18T19:25:40.783Z,10.57
2019-05-18T19:28:11.036Z,11.50
2019-05-18T19:30:41.280Z,10.67
2019-05-18T19:33:11.576Z,10.83
2019-05-18T19:35:41.844Z,10.80
2019-05-18T19:38:13.176Z,11.10
2019-05-18T19:40:43.548Z,10.87
2019-05-18T19:43:13.728Z,12.50
2019-05-18T19:45:43.930Z,12.17
2019-05-18T19:48:14.195Z,12.60
2019-05-18T19:50:44.427Z,11.93
2019-05-18T19:53:14.626Z,13.10
2019-05-18T19:55:44.748Z,13.60
2019-05-18T19:58:14.916Z,13.83
2019-05-18T20:00:45.146Z,11.47
2019-05-18T20:03:15.525Z,11.77
2019-05-18T20:05:45.698Z,16.90
2019-05-18T20:08:15.923Z,19.37
2019-05-18T20:10:46.341Z,13.83
2019-05-18T20:13:16.709Z,11.87
2019-05-18T20:15:47.177Z,11.93
2019-05-18T20:18:17.583Z,16.33
2019-05-18T20:20:47.844Z,17.07
2019-05-18T20:23:18.094Z,15.47
2019-05-18T20:25:48.378Z,17.03
2019-05-18T20:28:23.643Z,20.30
2019-05-18T20:30:50.474Z,18.57
2019-05-18T20:33:20.773Z,21.83
2019-05-18T20:35:50.990Z,15.70
2019-05-18T20:38:21.359Z,19.00
2019-05-18T20:40:52.543Z,19.20
2019-05-18T20:43:22.803Z,17.80
2019-05-18T20:45:53.211Z,18.60
2019-05-18T20:48:23.539Z,24.10
2019-05-18T20:50:53.796Z,19.47
2019-05-18T20:53:23.979Z,18.77
2019-05-18T20:55:54.263Z,17.07
2019-05-18T20:58:38.678Z,18.27
2019-05-18T21:00:56.287Z,15.50
2019-05-18T21:03:26.542Z,19.47
2019-05-18T21:05:56.743Z,17.57
2019-05-18T21:08:26.998Z,19.90
2019-05-18T21:10:57.134Z,20.80
2019-05-18T21:13:27.294Z,19.30
2019-05-18T21:15:57.563Z,21.67
2019-05-18T21:18:27.851Z,17.87
2019-05-18T21:20:58.075Z,19.37
2019-05-18T21:23:28.255Z,16.50
2019-05-18T21:25:58.614Z,19.07
2019-05-18T21:28:28.860Z,18.63
2019-05-18T21:30:59.043Z,17.73
2019-05-18T21:33:29.354Z,19.07
2019-05-18T21:35:59.631Z,19.40
2019-05-18T21:38:29.856Z,17.83
2019-05-18T21:41:00.110Z,17.83
2019-05-18T21:43:31.170Z,18.00
2019-05-18T21:46:01.349Z,18.47
2019-05-18T21:48:31.619Z,16.80
2019-05-18T21:51:01.784Z,20.47
2019-05-18T21:53:32.153Z,17.70
2019-05-18T21:56:02.506Z,18.90
2019-05-18T21:58:32.710Z,19.30
2019-05-18T22:01:03.127Z,21.63
2019-05-18T22:03:33.411Z,22.00
2019-05-18T22:06:03.633Z,23.73
2019-05-18T22:08:33.907Z,20.43
2019-05-18T22:11:04.327Z,24.03
2019-05-18T22:13:34.600Z,23.13
2019-05-18T22:16:04.825Z,27.73
2019-05-18T22:18:35.167Z,29.87
2019-05-18T22:21:05.819Z,22.70
2019-05-18T22:23:35.999Z,22.47
2019-05-18T22:26:06.273Z,29.67
2019-05-18T22:28:36.407Z,24.43
2019-05-18T22:31:06.643Z,24.33
2019-05-18T22:33:36.937Z,26.70
2019-05-18T22:36:07.190Z,27.93
2019-05-18T22:38:37.370Z,28.57
2019-05-18T22:41:07.689Z,36.43
2019-05-18T22:43:37.952Z,35.07
2019-05-18T22:46:09.044Z,42.57
2019-05-18T22:48:41.632Z,38.27
2019-05-18T22:51:11.295Z,31.90
2019-05-18T22:53:41.463Z,37.43
2019-05-18T22:56:11.778Z,36.87
2019-05-18T22:58:42.044Z,35.63
2019-05-18T23:01:12.229Z,44.00
2019-05-18T23:03:42.354Z,34.23
2019-05-18T23:06:12.605Z,42.40
2019-05-18T23:08:42.932Z,37.00
2019-05-18T23:11:13.168Z,31.63
2019-05-18T23:13:43.847Z,33.57
2019-05-18T23:16:14.111Z,35.97
2019-05-18T23:18:55.885Z,36.00
2019-05-18T23:21:16.284Z,34.97
2019-05-18T23:23:46.471Z,31.70
2019-05-18T23:26:16.767Z,35.20
2019-05-18T23:28:47.021Z,38.97
2019-05-18T23:31:17.291Z,37.90
2019-05-18T23:33:47.555Z,39.07
2019-05-18T23:36:17.722Z,36.47
2019-05-18T23:38:47.947Z,33.57
2019-05-18T23:41:18.227Z,37.10
2019-05-18T23:43:48.469Z,38.50
2019-05-18T23:46:18.666Z,36.00
2019-05-18T23:48:49.910Z,40.07
2019-05-18T23:51:20.159Z,35.10
2019-05-18T23:53:53.579Z,41.53
2019-05-18T23:56:22.413Z,39.93
2019-05-18T23:58:52.695Z,38.67
